Time;durP1;ratioP1;P1;durP2;ratioP2;P2;SDS_P1;SDS_P2;PMS_P1;PMS_P2;Temp;Humidity;BMP_temperature;BMP_pressure;BME280_temperature;BME280_humidity;BME280_pressure;Samples;Min_cycle;Max_cycle;Signal;HPM_P1;HPM_P2
2023/08/06 00:00:26;;;;;;;2.70;1.60;;;;;;;15.70;66.07;98924.06;10455806;28;20071;-59
2023/08/06 00:05:28;;;;;;;5.00;1.40;;;;;;;15.74;65.86;98930.69;10473541;28;20680;-59
2023/08/06 00:10:30;;;;;;;6.25;2.10;;;;;;;15.71;66.18;98912.53;10474400;28;20562;-59
2023/08/06 00:15:32;;;;;;;2.58;1.50;;;;;;;15.69;66.24;98913.66;10473285;28;20289;-59
2023/08/06 00:20:34;;;;;;;3.08;1.55;;;;;;;15.58;66.16;98906.78;10473505;28;20055;-59
2023/08/06 00:25:37;;;;;;;1.83;1.23;;;;;;;15.74;65.91;98896.41;10454013;28;20102;-59
2023/08/06 00:30:39;;;;;;;2.38;1.20;;;;;;;15.78;65.30;98879.31;10454410;28;20044;-60
2023/08/06 00:35:41;;;;;;;4.90;1.25;;;;;;;15.78;65.23;98883.75;10454324;28;20189;-59
2023/08/06 00:40:43;;;;;;;2.35;1.50;;;;;;;15.72;65.37;98884.34;10454660;28;20416;-59
2023/08/06 00:45:46;;;;;;;2.05;1.27;;;;;;;15.38;65.98;98884.13;10454003;28;20056;-59
2023/08/06 00:50:48;;;;;;;1.70;1.27;;;;;;;15.22;66.38;98882.13;10453603;28;20072;-59
2023/08/06 00:55:51;;;;;;;5.78;1.60;;;;;;;15.22;66.08;98882.13;10472196;28;20080;-59
2023/08/06 01:00:53;;;;;;;2.38;1.38;;;;;;;15.15;66.60;98877.59;10471929;28;20036;-59
2023/08/06 01:05:55;;;;;;;2.90;1.58;;;;;;;15.03;66.81;98876.13;10452471;28;20062;-59
2023/08/06 01:11:29;;;;;;;3.78;1.50;;;;;;;15.13;67.73;98861.09;10486296;28;20072;-59
2023/08/06 01:16:33;;;;;;;2.13;1.40;;;;;;;15.17;67.15;98857.19;10469525;28;20049;-59
2023/08/06 01:21:35;;;;;;;1.88;1.30;;;;;;;15.46;66.64;98852.59;10470960;28;20049;-59
2023/08/06 01:26:42;;;;;;;3.08;1.50;;;;;;;15.62;66.36;98842.25;10485412;28;20059;-59
2023/08/06 01:31:48;;;;;;;1.70;1.20;;;;;;;15.70;66.34;98846.78;10470277;28;20516;-60
2023/08/06 01:36:52;;;;;;;3.30;1.95;;;;;;;15.71;66.26;98848.44;10452553;28;20066;-60
2023/08/06 01:41:54;;;;;;;2.00;1.30;;;;;;;15.78;66.46;98852.97;10469980;28;20250;-60
2023/08/06 01:46:56;;;;;;;2.55;1.60;;;;;;;15.74;66.25;98843.69;10470018;28;20048;-59
2023/08/06 01:51:58;;;;;;;2.33;1.30;;;;;;;15.84;65.79;98843.59;10484238;28;20131;-59
2023/08/06 01:57:00;;;;;;;6.68;2.50;;;;;;;15.96;65.86;98840.59;10451469;28;20170;-59
2023/08/06 02:02:02;;;;;;;2.15;1.17;;;;;;;16.06;65.49;98827.34;10454117;28;20044;-59
2023/08/06 02:07:04;;;;;;;3.00;1.40;;;;;;;16.00;65.50;98820.84;10458049;28;20144;-60
2023/08/06 02:12:07;;;;;;;1.80;1.23;;;;;;;15.94;66.01;98815.34;10476096;28;20499;-60
2023/08/06 02:17:09;;;;;;;2.55;1.13;;;;;;;16.01;65.47;98814.59;10457774;28;20047;-59
2023/08/06 02:22:11;;;;;;;3.25;1.73;;;;;;;16.11;65.47;98812.72;10475932;28;20052;-59
2023/08/06 02:27:13;;;;;;;1.60;1.05;;;;;;;16.07;65.19;98808.72;10475602;28;20136;-59
2023/08/06 02:32:15;;;;;;;2.03;1.27;;;;;;;16.17;65.25;98805.97;10476151;28;20059;-60
2023/08/06 02:37:17;;;;;;;2.50;1.30;;;;;;;16.13;65.04;98789.66;10457851;28;20040;-60
2023/08/06 02:42:20;;;;;;;4.13;1.10;;;;;;;16.12;65.06;98800.34;10499678;28;21040;-59
2023/08/06 02:47:22;;;;;;;3.03;1.63;;;;;;;16.06;65.37;98783.31;10483920;28;20114;-59
2023/08/06 02:52:24;;;;;;;4.70;1.50;;;;;;;15.99;65.16;98770.91;10465558;28;20051;-59
2023/08/06 02:57:27;;;;;;;2.13;1.23;;;;;;;15.83;65.38;98771.63;10465499;28;20106;-59
2023/08/06 03:02:30;;;;;;;2.80;1.42;;;;;;;15.83;65.67;98774.25;10462633;28;20051;-59
2023/08/06 03:07:44;;;;;;;1.80;1.27;;;;;;;15.62;65.83;98784.28;10459590;28;20583;-60
2023/08/06 03:12:52;;;;;;;1.65;1.40;;;;;;;15.64;65.70;98765.66;10457389;28;20501;-59
2023/08/06 03:17:56;;;;;;;2.47;1.48;;;;;;;15.71;65.87;98762.28;10457681;28;20408;-59
2023/08/06 03:22:59;;;;;;;3.83;1.30;;;;;;;15.69;65.74;98753.72;10457050;28;20048;-60
2023/08/06 03:28:04;;;;;;;2.35;1.40;;;;;;;15.59;65.59;98752.94;10475523;28;20296;-59
2023/08/06 03:33:08;;;;;;;2.60;1.60;;;;;;;15.48;65.89;98750.53;10473284;28;20413;-59
2023/08/06 03:38:10;;;;;;;1.92;1.30;;;;;;;15.41;66.29;98746.81;10473365;28;20157;-59
2023/08/06 03:43:12;;;;;;;2.30;1.33;;;;;;;15.40;65.95;98745.16;10456234;28;20051;-59
2023/08/06 03:48:14;;;;;;;3.00;1.10;;;;;;;15.45;66.20;98742.91;10474808;28;20055;-59
2023/08/06 03:53:16;;;;;;;2.28;1.27;;;;;;;15.48;66.44;98734.72;10474048;28;20906;-60
2023/08/06 03:58:18;;;;;;;1.75;1.27;;;;;;;15.56;66.41;98726.91;10455879;28;20508;-60
2023/08/06 04:03:20;;;;;;;4.20;2.40;;;;;;;15.68;66.36;98720.41;10472687;28;20045;-60
2023/08/06 04:08:22;;;;;;;4.15;1.70;;;;;;;15.70;66.35;98720.25;10474028;28;20133;-60
2023/08/06 04:13:24;;;;;;;2.38;1.20;;;;;;;15.65;66.62;98720.72;10474034;28;20047;-60
2023/08/06 04:18:26;;;;;;;3.28;1.52;;;;;;;15.71;66.31;98720.13;10455503;28;20135;-60
2023/08/06 04:23:29;;;;;;;1.85;1.30;;;;;;;15.66;66.68;98726.81;10488477;28;20504;-60
2023/08/06 04:28:36;;;;;;;2.63;1.60;;;;;;;15.72;66.81;98724.41;10439038;28;20500;-59
2023/08/06 04:33:38;;;;;;;3.60;1.40;;;;;;;15.81;66.57;98730.56;10488549;28;20036;-59
2023/08/06 04:38:47;;;;;;;1.98;1.17;;;;;;;15.76;66.54;98727.53;10454039;28;20045;-59
2023/08/06 04:43:50;;;;;;;2.50;1.40;;;;;;;15.67;66.94;98724.03;10454309;28;20181;-59
2023/08/06 04:48:52;;;;;;;2.05;1.25;;;;;;;15.68;66.62;98725.69;10487540;28;20040;-59
2023/08/06 04:53:54;;;;;;;2.53;1.40;;;;;;;15.66;67.07;98725.00;10453701;28;20604;-60
2023/08/06 04:58:57;;;;;;;3.40;1.77;;;;;;;15.70;66.69;98723.72;10471718;28;20139;-60
2023/08/06 05:03:59;;;;;;;1.80;1.20;;;;;;;15.74;66.28;98722.44;10452422;28;20091;-59
2023/08/06 05:09:01;;;;;;;2.40;1.20;;;;;;;15.82;66.48;98722.50;10471953;28;20040;-59
2023/08/06 05:14:03;;;;;;;2.15;1.20;;;;;;;15.88;66.64;98718.41;10452589;28;20132;-59
2023/08/06 05:19:05;;;;;;;11.13;1.60;;;;;;;15.96;66.50;98723.72;10451874;28;20045;-60
2023/08/06 05:24:07;;;;;;;1.75;1.15;;;;;;;15.98;66.56;98727.88;10470091;28;20048;-59
2023/08/06 05:29:09;;;;;;;4.50;1.63;;;;;;;15.93;66.64;98719.63;10471019;28;20045;-59
2023/08/06 05:34:11;;;;;;;3.22;1.35;;;;;;;15.86;67.05;98720.38;10470258;28;20071;-59
2023/08/06 05:39:13;;;;;;;1.20;1.10;;;;;;;16.06;66.53;98724.47;10452957;28;20131;-59
2023/08/06 05:44:15;;;;;;;2.53;1.30;;;;;;;16.17;66.88;98722.41;10452219;28;20365;-59
2023/08/06 05:49:17;;;;;;;1.20;1.00;;;;;;;16.31;66.58;98717.50;10467755;28;20036;-59
2023/08/06 05:54:19;;;;;;;2.75;1.00;;;;;;;16.20;66.85;98718.63;10469538;28;20292;-60
2023/08/06 05:59:22;;;;;;;0.93;0.80;;;;;;;16.23;66.28;98729.69;10470094;28;20047;-59
2023/08/06 06:04:25;;;;;;;1.67;1.30;;;;;;;16.20;66.53;98731.81;10484511;28;20048;-60
2023/08/06 06:09:27;;;;;;;1.50;0.80;;;;;;;16.17;66.31;98732.97;10470207;28;20082;-60
2023/08/06 06:14:29;;;;;;;1.05;0.65;;;;;;;16.16;66.67;98736.56;10469201;28;20049;-60
2023/08/06 06:19:30;;;;;;;0.63;0.57;;;;;;;16.29;66.46;98733.50;10469328;28;20048;-59
2023/08/06 06:24:33;;;;;;;1.23;0.88;;;;;;;16.34;66.09;98725.97;10468493;28;20135;-61
2023/08/06 06:29:36;;;;;;;0.68;0.68;;;;;;;16.46;65.93;98734.47;10469469;28;20086;-60
2023/08/06 06:34:38;;;;;;;0.52;0.52;;;;;;;16.61;65.85;98732.88;10469113;28;20511;-60
2023/08/06 06:39:40;;;;;;;0.68;0.68;;;;;;;16.72;65.13;98740.50;10468465;28;20156;-59
2023/08/06 06:44:42;;;;;;;0.45;0.45;;;;;;;16.65;65.20;98742.16;10468732;28;20061;-59
2023/08/06 06:49:44;;;;;;;1.48;0.80;;;;;;;16.75;65.62;98732.28;10450300;28;20063;-60
2023/08/06 06:54:47;;;;;;;0.60;0.47;;;;;;;16.87;65.61;98737.09;10468670;28;20051;-59
2023/08/06 06:59:49;;;;;;;0.60;0.60;;;;;;;16.93;65.27;98735.66;10482913;28;20044;-60
2023/08/06 07:04:51;;;;;;;0.38;0.30;;;;;;;16.91;65.44;98735.81;10468046;28;20094;-59
2023/08/06 07:09:53;;;;;;;0.95;0.65;;;;;;;17.38;64.62;98737.91;10483676;28;20041;-59
2023/08/06 07:14:56;;;;;;;0.40;0.40;;;;;;;17.73;63.75;98734.94;10467792;28;20485;-61
2023/08/06 07:19:58;;;;;;;0.30;0.30;;;;;;;18.12;63.14;98735.06;10450415;28;20408;-59
2023/08/06 07:25:00;;;;;;;0.45;0.45;;;;;;;18.57;62.52;98730.03;10468760;28;20064;-59
2023/08/06 07:30:02;;;;;;;0.50;0.50;;;;;;;19.35;61.25;98729.00;10457261;28;20131;-59
2023/08/06 07:35:05;;;;;;;0.38;0.35;;;;;;;19.68;59.83;98736.72;10475138;28;20109;-59
2023/08/06 07:40:08;;;;;;;0.40;0.40;;;;;;;20.07;59.41;98721.47;10475000;28;20037;-59
2023/08/06 07:45:10;;;;;;;3.30;0.57;;;;;;;21.42;57.20;98721.81;10474710;28;20075;-59
2023/08/06 07:50:13;;;;;;;3.08;0.57;;;;;;;22.64;54.07;98716.81;10475031;28;20086;-59
2023/08/06 07:55:15;;;;;;;0.30;0.30;;;;;;;22.80;53.56;98715.72;10474626;28;20076;-60
2023/08/06 08:00:17;;;;;;;0.32;0.30;;;;;;;22.77;52.26;98716.94;10474414;28;20049;-60
2023/08/06 08:05:19;;;;;;;0.70;0.65;;;;;;;22.51;53.06;98712.28;10473132;28;20542;-60
2023/08/06 08:10:21;;;;;;;1.67;0.47;;;;;;;22.13;53.08;98713.66;10474060;28;20373;-59
2023/08/06 08:15:26;;;;;;;0.25;0.25;;;;;;;22.54;51.95;98714.53;10455288;28;20090;-58
2023/08/06 08:20:31;;;;;;;0.13;0.13;;;;;;;22.94;51.12;98710.25;10473669;28;20083;-59
2023/08/06 08:25:34;;;;;;;0.30;0.30;;;;;;;23.78;48.78;98698.09;10472949;28;20816;-59
2023/08/06 08:30:36;;;;;;;0.22;0.22;;;;;;;24.47;47.34;98697.63;10474416;28;20084;-59
2023/08/06 08:35:38;;;;;;;0.32;0.30;;;;;;;24.20;47.26;98704.88;10473152;28;20110;-59
2023/08/06 08:40:49;;;;;;;0.30;0.30;;;;;;;24.47;45.25;98697.63;10473046;28;20117;-60
2023/08/06 08:45:54;;;;;;;0.30;0.30;;;;;;;24.79;45.91;98705.56;10472037;28;20056;-60
2023/08/06 08:50:57;;;;;;;1.25;0.43;;;;;;;24.88;45.37;98687.41;10472240;28;20048;-59
2023/08/06 08:56:00;;;;;;;0.20;0.20;;;;;;;24.84;44.84;98695.03;10471021;28;20497;-60
2023/08/06 09:01:03;;;;;;;0.20;0.20;;;;;;;23.87;46.12;98696.88;10472700;28;20499;-59
2023/08/06 09:06:06;;;;;;;0.20;0.20;;;;;;;22.83;47.63;98704.63;10453504;28;20048;-59
2023/08/06 09:11:10;;;;;;;0.52;0.30;;;;;;;22.17;48.27;98704.25;10472129;28;20056;-59
2023/08/06 09:16:13;;;;;;;0.20;0.20;;;;;;;21.92;49.09;98715.50;10453562;28;20037;-59
2023/08/06 09:21:18;;;;;;;0.60;0.60;;;;;;;21.61;49.81;98716.69;10470064;28;20582;-59
2023/08/06 09:26:20;;;;;;;1.75;0.30;;;;;;;21.31;50.40;98714.31;10470318;28;20178;-60
2023/08/06 09:31:22;;;;;;;0.32;0.30;;;;;;;21.60;49.57;98716.88;10470688;28;20421;-59
2023/08/06 09:36:24;;;;;;;0.30;0.30;;;;;;;21.77;49.01;98711.09;10470107;28;20394;-59
2023/08/06 09:41:28;;;;;;;0.15;0.15;;;;;;;22.15;48.63;98722.25;10470045;28;20055;-59
2023/08/06 09:46:32;;;;;;;0.40;0.30;;;;;;;21.92;47.55;98722.47;10469675;28;20424;-59
2023/08/06 09:51:34;;;;;;;2.50;0.63;;;;;;;21.84;48.40;98721.81;10469294;28;20048;-59
2023/08/06 09:56:37;;;;;;;0.20;0.20;;;;;;;21.87;48.58;98710.75;10484241;28;20492;-59
2023/08/06 10:01:39;;;;;;;0.20;0.20;;;;;;;22.68;47.00;98713.56;10469711;28;20573;-59
2023/08/06 10:06:43;;;;;;;0.35;0.30;;;;;;;22.66;46.80;98718.28;10468836;28;20054;-59
2023/08/06 10:11:52;;;;;;;0.55;0.40;;;;;;;24.10;44.30;98709.84;10469088;28;20048;-59
2023/08/06 10:16:57;;;;;;;0.45;0.45;;;;;;;25.33;43.02;98706.94;10450271;28;20041;-59
2023/08/06 10:22:13;;;;;;;0.50;0.45;;;;;;;25.33;40.17;98691.69;10468970;28;20078;-59
2023/08/06 10:27:33;;;;;;;1.08;0.38;;;;;;;25.65;40.91;98690.66;10469083;28;20131;-59
2023/08/06 10:32:52;;;;;;;0.30;0.30;;;;;;;24.61;40.73;98699.22;10468936;28;20048;-59
2023/08/06 10:37:58;;;;;;;0.45;0.35;;;;;;;23.00;44.99;98725.44;10434033;28;20052;-59
2023/08/06 10:43:06;;;;;;;0.63;0.55;;;;;;;21.38;49.13;98739.16;10467772;28;20048;-59
2023/08/06 10:48:08;;;;;;;0.88;0.43;;;;;;;20.13;51.18;98753.41;10468118;28;20055;-59
2023/08/06 10:53:12;;;;;;;0.20;0.20;;;;;;;19.17;53.01;98780.63;10450185;28;20127;-59
2023/08/06 10:58:16;;;;;;;0.28;0.28;;;;;;;18.79;55.02;98792.84;10468875;28;20285;-59
2023/08/06 11:03:18;;;;;;;0.17;0.17;;;;;;;18.61;55.30;98794.91;10474821;28;20447;-59
2023/08/06 11:08:33;;;;;;;0.20;0.20;;;;;;;18.30;58.16;98815.16;10476510;28;20044;-58
2023/08/06 11:13:35;;;;;;;0.98;0.30;;;;;;;17.65;57.75;98825.69;10475601;28;20045;-58
2023/08/06 11:18:37;;;;;;;0.30;0.20;;;;;;;17.35;58.64;98831.56;10457678;28;20051;-58
2023/08/06 11:23:40;;;;;;;0.63;0.40;;;;;;;17.31;58.91;98840.78;10475528;28;20106;-58
2023/08/06 11:28:42;;;;;;;0.25;0.25;;;;;;;17.00;60.00;98852.88;10475587;28;20515;-59
2023/08/06 11:33:44;;;;;;;0.40;0.40;;;;;;;16.80;60.67;98872.56;10475224;28;20048;-58
2023/08/06 11:38:46;;;;;;;0.32;0.32;;;;;;;17.07;59.52;98866.28;10457499;28;20048;-59
2023/08/06 11:43:48;;;;;;;0.32;0.32;;;;;;;16.96;59.39;98894.63;10474487;28;20454;-58
2023/08/06 11:48:58;;;;;;;0.40;0.40;;;;;;;16.86;60.04;98899.19;10474308;28;20053;-59
2023/08/06 11:54:02;;;;;;;0.75;0.60;;;;;;;17.50;57.35;98885.47;10474034;28;20500;-59
2023/08/06 11:59:05;;;;;;;0.70;0.40;;;;;;;17.54;57.02;98891.28;10473899;28;20047;-58
2023/08/06 12:04:07;;;;;;;0.38;0.38;;;;;;;17.74;56.47;98904.06;10456176;28;20040;-59
2023/08/06 12:09:10;;;;;;;0.25;0.25;;;;;;;17.30;56.76;98922.88;10456109;28;20052;-59
2023/08/06 12:14:12;;;;;;;0.40;0.40;;;;;;;17.09;57.71;98935.63;10472687;28;20128;-59
2023/08/06 12:19:14;;;;;;;0.30;0.30;;;;;;;16.78;58.54;98943.19;10472985;28;20139;-58
2023/08/06 12:24:16;;;;;;;0.52;0.47;;;;;;;16.78;58.24;98953.75;10473475;28;20067;-59
2023/08/06 12:29:18;;;;;;;0.30;0.30;;;;;;;16.76;58.56;98953.91;10473246;28;20182;-59
2023/08/06 12:34:20;;;;;;;0.32;0.32;;;;;;;17.18;58.18;98956.66;10472990;28;20435;-59
2023/08/06 12:39:28;;;;;;;0.75;0.65;;;;;;;17.36;58.23;98957.47;10472763;28;20118;-59
2023/08/06 12:44:30;;;;;;;0.30;0.30;;;;;;;17.53;56.76;98956.53;10487330;28;20449;-58
2023/08/06 12:49:33;;;;;;;0.30;0.30;;;;;;;17.48;56.48;98973.84;10473119;28;20056;-59
2023/08/06 12:54:36;;;;;;;1.40;0.50;;;;;;;17.67;57.00;98979.72;10471642;28;20076;-59
2023/08/06 12:59:39;;;;;;;0.30;0.30;;;;;;;17.46;57.31;98989.88;10453652;28;20333;-59
2023/08/06 13:04:41;;;;;;;0.40;0.40;;;;;;;17.33;57.16;98988.59;10452527;28;20040;-59
2023/08/06 13:09:43;;;;;;;0.20;0.20;;;;;;;16.97;58.09;98995.81;10471687;28;20131;-58
2023/08/06 13:14:45;;;;;;;0.30;0.30;;;;;;;17.16;58.22;98985.03;10471412;28;20377;-59
2023/08/06 13:19:48;;;;;;;3.15;0.57;;;;;;;17.19;58.37;98995.31;10471010;28;20437;-59
2023/08/06 13:24:50;;;;;;;0.75;0.50;;;;;;;17.52;57.46;98997.19;10451741;28;20048;-58
2023/08/06 13:29:52;;;;;;;0.70;0.45;;;;;;;17.73;57.32;98999.41;10470777;28;20051;-58
2023/08/06 13:34:54;;;;;;;0.20;0.20;;;;;;;18.09;56.94;99007.97;10470491;28;20051;-59
2023/08/06 13:39:56;;;;;;;0.30;0.30;;;;;;;18.40;56.53;99009.88;10470771;28;20378;-59
2023/08/06 13:45:03;;;;;;;0.20;0.20;;;;;;;18.41;55.19;99010.72;10469821;28;20048;-59
2023/08/06 13:50:06;;;;;;;1.00;0.30;;;;;;;18.35;55.94;99011.38;10451201;28;20040;-59
2023/08/06 13:55:08;;;;;;;0.63;0.35;;;;;;;17.93;56.91;99018.50;10469762;28;20557;-59
2023/08/06 14:00:11;;;;;;;1.55;0.30;;;;;;;17.91;56.84;99028.41;10469827;28;20516;-59
2023/08/06 14:05:13;;;;;;;0.40;0.30;;;;;;;17.62;56.63;99029.63;10469314;28;20044;-59
2023/08/06 14:10:15;;;;;;;0.25;0.25;;;;;;;17.44;57.19;99042.09;10469339;28;20078;-59
2023/08/06 14:15:17;;;;;;;0.17;0.17;;;;;;;17.13;57.86;99042.66;10469147;28;20135;-58
2023/08/06 14:20:19;;;;;;;0.40;0.38;;;;;;;17.13;58.26;99051.41;10468078;28;20053;-59
2023/08/06 14:25:21;;;;;;;0.52;0.43;;;;;;;17.30;58.31;99068.22;10469227;28;20045;-58
2023/08/06 14:30:23;;;;;;;1.55;0.65;;;;;;;17.08;58.72;99064.25;10469062;28;20044;-59
2023/08/06 14:35:25;;;;;;;0.30;0.30;;;;;;;17.04;58.30;99081.38;10451042;28;20052;-59
2023/08/06 14:40:33;;;;;;;1.17;0.68;;;;;;;16.85;59.29;99086.84;10450646;28;20060;-59
2023/08/06 14:45:39;;;;;;;0.65;0.50;;;;;;;16.62;60.02;99091.75;10467849;28;20047;-59
2023/08/06 14:50:41;;;;;;;0.60;0.60;;;;;;;16.53;59.07;99097.09;10468998;28;20052;-59
2023/08/06 14:55:43;;;;;;;0.65;0.65;;;;;;;16.55;58.93;99089.88;10468485;28;20048;-59
2023/08/06 15:00:45;;;;;;;1.65;0.60;;;;;;;16.61;58.84;99108.56;10468296;28;20053;-59
2023/08/06 15:05:49;;;;;;;0.68;0.68;;;;;;;16.44;58.94;99114.66;10467999;28;20079;-58
2023/08/06 15:10:54;;;;;;;0.60;0.52;;;;;;;16.68;58.38;99116.72;10467317;28;20044;-59
2023/08/06 15:15:56;;;;;;;0.32;0.32;;;;;;;16.86;58.15;99128.09;10467482;28;20056;-59
2023/08/06 15:20:58;;;;;;;0.73;0.40;;;;;;;16.98;57.62;99137.47;10467636;28;20520;-59
2023/08/06 15:26:00;;;;;;;0.75;0.57;;;;;;;17.07;57.31;99138.38;10467550;28;20147;-59
2023/08/06 15:31:04;;;;;;;0.65;0.50;;;;;;;17.15;57.54;99141.94;10433522;28;20332;-59
2023/08/06 15:36:06;;;;;;;0.85;0.47;;;;;;;16.95;57.65;99141.25;10467972;28;20822;-58
2023/08/06 15:41:08;;;;;;;0.38;0.38;;;;;;;16.81;58.07;99149.69;10449935;28;20047;-58
2023/08/06 15:46:10;;;;;;;0.73;0.55;;;;;;;16.73;58.26;99162.81;10469521;28;20673;-59
2023/08/06 15:51:12;;;;;;;0.40;0.30;;;;;;;16.90;57.48;99158.53;10474732;28;20320;-58
2023/08/06 15:56:15;;;;;;;1.52;0.68;;;;;;;16.81;58.35;99162.06;10475509;28;20049;-58
2023/08/06 16:01:16;;;;;;;0.40;0.30;;;;;;;16.70;58.14;99168.41;10470620;28;20051;-59
2023/08/06 16:06:19;;;;;;;0.10;0.10;;;;;;;16.73;58.44;99178.66;10465808;28;20135;-59
2023/08/06 16:11:21;;;;;;;0.47;0.40;;;;;;;16.72;58.14;99182.28;10456598;28;20098;-59
2023/08/06 16:16:23;;;;;;;0.30;0.30;;;;;;;16.79;57.97;99182.53;10473490;28;20075;-58
2023/08/06 16:21:25;;;;;;;1.45;0.40;;;;;;;16.86;57.69;99183.56;10473308;28;20048;-59
2023/08/06 16:26:27;;;;;;;0.10;0.10;;;;;;;16.91;57.93;99186.59;10473010;28;20064;-58
2023/08/06 16:31:29;;;;;;;2.28;1.05;;;;;;;16.74;58.17;99195.31;10472963;28;20048;-59
2023/08/06 16:36:31;;;;;;;0.20;0.20;;;;;;;16.79;58.95;99196.53;10472780;28;20041;-59
2023/08/06 16:41:34;;;;;;;0.30;0.30;;;;;;;16.56;59.17;99192.66;10453046;28;20076;-59
2023/08/06 16:46:36;;;;;;;0.40;0.30;;;;;;;16.50;59.18;99197.69;10472525;28;20132;-59
2023/08/06 16:51:38;;;;;;;0.32;0.30;;;;;;;16.34;59.78;99211.50;10472136;28;20129;-59
2023/08/06 16:56:40;;;;;;;0.35;0.30;;;;;;;16.11;60.65;99211.00;10472221;28;20459;-59
2023/08/06 17:01:42;;;;;;;0.10;0.10;;;;;;;15.98;60.50;99213.13;10471941;28;20865;-59
2023/08/06 17:06:44;;;;;;;0.28;0.28;;;;;;;15.70;61.03;99218.47;10471142;28;20278;-59
2023/08/06 17:11:46;;;;;;;0.20;0.20;;;;;;;15.70;60.57;99223.72;10454007;28;20064;-59
2023/08/06 17:16:50;;;;;;;1.40;0.45;;;;;;;15.66;60.86;99227.63;10470741;28;20051;-59
2023/08/06 17:21:51;;;;;;;0.45;0.25;;;;;;;15.74;60.44;99233.84;10436114;28;20348;-59
2023/08/06 17:26:58;;;;;;;0.38;0.38;;;;;;;15.68;60.62;99234.41;10452911;28;20063;-59
2023/08/06 17:32:00;;;;;;;0.93;0.50;;;;;;;15.57;61.06;99247.72;10470218;28;20485;-59
2023/08/06 17:37:05;;;;;;;0.43;0.40;;;;;;;15.38;61.96;99253.00;10468606;28;20083;-59
2023/08/06 17:42:10;;;;;;;0.20;0.20;;;;;;;15.26;62.37;99259.38;10470321;28;20447;-59
2023/08/06 17:47:12;;;;;;;0.30;0.30;;;;;;;15.27;62.47;99255.75;10451723;28;20407;-59
2023/08/06 17:52:27;;;;;;;0.40;0.40;;;;;;;15.12;63.20;99263.22;10470009;28;20044;-59
2023/08/06 17:57:30;;;;;;;1.35;0.40;;;;;;;15.18;62.39;99259.22;10469707;28;20036;-60
2023/08/06 18:02:32;;;;;;;1.67;0.60;;;;;;;15.06;63.28;99255.03;10435306;28;20106;-59
2023/08/06 18:07:34;;;;;;;0.68;0.60;;;;;;;15.03;63.18;99263.19;10469343;28;20044;-59
2023/08/06 18:12:36;;;;;;;0.57;0.50;;;;;;;15.05;62.84;99262.09;10468812;28;20124;-59
2023/08/06 18:17:40;;;;;;;0.60;0.60;;;;;;;14.92;63.53;99264.13;10468302;28;20819;-59
2023/08/06 18:22:42;;;;;;;0.52;0.47;;;;;;;14.85;63.55;99285.88;10468622;28;20516;-59
2023/08/06 18:27:46;;;;;;;0.30;0.30;;;;;;;14.76;64.50;99277.00;10450800;28;20037;-59
2023/08/06 18:32:48;;;;;;;0.30;0.30;;;;;;;14.68;64.33;99275.97;10484592;28;20068;-60
2023/08/06 18:37:51;;;;;;;0.40;0.40;;;;;;;14.51;64.56;99288.81;10451203;28;20072;-60
2023/08/06 18:42:53;;;;;;;0.40;0.40;;;;;;;14.33;65.49;99277.19;10468999;28;20041;-60
2023/08/06 18:47:55;;;;;;;0.32;0.32;;;;;;;14.29;65.30;99296.84;10468725;28;20059;-60
2023/08/06 18:52:58;;;;;;;1.48;0.98;;;;;;;14.30;65.58;99303.78;10468458;28;20511;-60
2023/08/06 18:58:03;;;;;;;0.22;0.22;;;;;;;14.37;65.46;99298.84;10468504;28;20584;-60
2023/08/06 19:03:06;;;;;;;0.65;0.50;;;;;;;14.19;65.91;99311.72;10468377;28;20044;-60
2023/08/06 19:08:09;;;;;;;0.50;0.50;;;;;;;14.09;66.17;99318.72;10449879;28;20508;-60
2023/08/06 19:13:11;;;;;;;0.60;0.52;;;;;;;14.04;66.76;99331.44;10467881;28;20068;-60
2023/08/06 19:18:14;;;;;;;2.30;0.50;;;;;;;13.95;66.82;99345.31;10467935;28;20056;-58
2023/08/06 19:23:18;;;;;;;0.50;0.40;;;;;;;13.99;68.11;99338.00;10472254;28;20057;-59
2023/08/06 19:28:20;;;;;;;0.40;0.40;;;;;;;14.07;67.06;99338.22;10475542;28;20143;-59
2023/08/06 19:33:22;;;;;;;0.65;0.65;;;;;;;14.10;67.21;99338.81;10475022;28;20052;-59
2023/08/06 19:38:25;;;;;;;0.60;0.60;;;;;;;14.02;67.47;99337.78;10457427;28;20056;-59
2023/08/06 19:43:28;;;;;;;0.38;0.32;;;;;;;14.10;67.20;99336.19;10474937;28;20047;-59
2023/08/06 19:48:32;;;;;;;0.30;0.30;;;;;;;14.08;67.42;99346.00;10475071;28;20465;-59
2023/08/06 19:53:35;;;;;;;0.20;0.20;;;;;;;13.99;67.82;99352.00;10457373;28;20052;-58
2023/08/06 19:58:37;;;;;;;0.50;0.50;;;;;;;13.97;67.76;99353.09;10474522;28;20045;-59
2023/08/06 20:03:43;;;;;;;0.40;0.40;;;;;;;13.97;68.00;99359.19;10474488;28;20105;-59
2023/08/06 20:08:45;;;;;;;0.40;0.40;;;;;;;13.90;68.55;99368.56;10455395;28;20412;-59
2023/08/06 20:13:47;;;;;;;0.40;0.40;;;;;;;13.87;67.90;99375.81;10455760;28;20135;-59
2023/08/06 20:18:49;;;;;;;0.40;0.40;;;;;;;13.79;67.50;99376.47;10474231;28;20907;-59
2023/08/06 20:23:52;;;;;;;1.17;0.50;;;;;;;13.81;67.63;99377.19;10473350;28;20080;-59
2023/08/06 20:28:53;;;;;;;0.85;0.70;;;;;;;13.81;67.36;99392.94;10473118;28;20306;-59
2023/08/06 20:33:55;;;;;;;2.00;0.50;;;;;;;13.80;67.44;99390.44;10472863;28;20044;-58
2023/08/06 20:38:57;;;;;;;0.57;0.57;;;;;;;13.74;67.17;99402.28;10470455;28;20048;-58
2023/08/06 20:43:59;;;;;;;0.50;0.50;;;;;;;13.78;67.56;99409.78;10472139;28;20138;-58
2023/08/06 20:49:01;;;;;;;0.90;0.43;;;;;;;13.79;66.68;99408.00;10454797;28;20048;-58
2023/08/06 20:54:03;;;;;;;1.25;0.80;;;;;;;13.73;67.11;99419.00;10472476;28;20413;-58
2023/08/06 20:59:05;;;;;;;0.70;0.70;;;;;;;13.72;66.69;99412.06;10472204;28;20071;-58
2023/08/06 21:04:10;;;;;;;2.08;0.85;;;;;;;13.55;66.97;99426.59;10471410;28;20511;-58
2023/08/06 21:09:12;;;;;;;1.08;0.70;;;;;;;13.62;67.01;99432.16;10471270;28;20135;-58
2023/08/06 21:14:14;;;;;;;3.03;1.10;;;;;;;13.65;66.67;99424.06;10471598;28;20123;-58
2023/08/06 21:19:16;;;;;;;2.00;0.65;;;;;;;13.65;66.32;99431.94;10453244;28;20084;-58
2023/08/06 21:24:18;;;;;;;2.80;0.40;;;;;;;13.53;66.41;99444.28;10470915;28;20047;-59
2023/08/06 21:29:20;;;;;;;1.30;0.68;;;;;;;13.60;66.54;99444.59;10470590;28;20478;-58
2023/08/06 21:34:22;;;;;;;1.80;0.80;;;;;;;13.50;66.35;99452.38;10470712;28;20250;-59
2023/08/06 21:39:24;;;;;;;2.33;0.60;;;;;;;13.45;66.49;99451.09;10452297;28;20677;-60
2023/08/06 21:44:26;;;;;;;0.45;0.45;;;;;;;13.41;66.27;99460.13;10450740;28;20098;-59
2023/08/06 21:49:28;;;;;;;2.92;0.60;;;;;;;13.40;66.36;99463.69;10469561;28;20045;-60
2023/08/06 21:54:30;;;;;;;3.45;1.08;;;;;;;13.45;66.12;99477.34;10452399;28;20053;-59
2023/08/06 21:59:32;;;;;;;0.90;0.52;;;;;;;13.52;65.87;99468.00;10470478;28;20048;-59
2023/08/06 22:04:34;;;;;;;5.38;0.85;;;;;;;13.52;65.86;99473.28;10469804;28;20127;-59
2023/08/06 22:09:36;;;;;;;2.50;0.60;;;;;;;13.55;65.77;99479.13;10469433;28;20083;-59
2023/08/06 22:14:38;;;;;;;1.50;0.65;;;;;;;13.49;66.04;99468.28;10468901;28;20142;-59
2023/08/06 22:19:40;;;;;;;2.10;0.88;;;;;;;13.44;66.20;99467.78;10469165;28;20059;-59
2023/08/06 22:24:42;;;;;;;2.45;1.48;;;;;;;13.35;66.30;99474.56;10468686;28;20496;-59
2023/08/06 22:29:44;;;;;;;2.50;0.90;;;;;;;13.29;66.69;99474.22;10451012;28;20044;-59
2023/08/06 22:34:46;;;;;;;0.73;0.65;;;;;;;13.29;66.68;99485.53;10468746;28;20050;-58
2023/08/06 22:39:48;;;;;;;4.05;0.93;;;;;;;13.26;66.83;99484.94;10468230;28;20041;-58
2023/08/06 22:44:50;;;;;;;8.98;1.00;;;;;;;13.30;66.31;99476.72;10468769;28;20072;-58
2023/08/06 22:49:52;;;;;;;0.70;0.60;;;;;;;13.33;66.50;99486.16;10469066;28;20094;-58
2023/08/06 22:54:55;;;;;;;2.53;0.80;;;;;;;13.28;66.53;99488.28;10470103;28;20057;-58
2023/08/06 23:00:17;;;;;;;2.40;0.80;;;;;;;13.09;67.32;99490.69;10489002;28;20032;-58
2023/08/06 23:05:19;;;;;;;1.52;0.70;;;;;;;13.00;67.63;99497.47;10476827;28;20407;-58
2023/08/06 23:10:21;;;;;;;2.47;0.88;;;;;;;13.10;66.92;99495.81;10477301;28;20139;-58
2023/08/06 23:15:24;;;;;;;0.68;0.68;;;;;;;13.12;67.03;99503.56;10476257;28;20048;-58
2023/08/06 23:20:26;;;;;;;2.85;0.52;;;;;;;13.06;67.27;99506.66;10475781;28;20072;-58
2023/08/06 23:25:29;;;;;;;0.80;0.70;;;;;;;13.00;67.91;99507.97;10476072;28;20099;-58